Time;durP1;ratioP1;P1;durP2;ratioP2;P2;SDS_P1;SDS_P2;PMS_P1;PMS_P2;Temp;Humidity;BMP_temperature;BMP_pressure;BME280_temperature;BME280_humidity;BME280_pressure;Samples;Min_cycle;Max_cycle;Signal;HPM_P1;HPM_P2
2021/12/17 00:04:50;;;;;;;10.27;1.92;;;25.00;99.90;;;;;;5035934;28;20487;-72
2021/12/17 00:07:19;;;;;;;7.82;2.13;;;24.80;99.90;;;;;;5034863;28;20129;-73
2021/12/17 00:09:48;;;;;;;8.02;2.63;;;24.70;99.90;;;;;;5035869;28;20018;-73
2021/12/17 00:12:22;;;;;;;6.45;2.00;;;24.60;99.90;;;;;;5035717;28;20026;-73
2021/12/17 00:14:51;;;;;;;6.03;2.03;;;24.50;99.90;;;;;;5034517;28;20079;-73
2021/12/17 00:17:25;;;;;;;7.53;2.17;;;24.60;99.90;;;;;;5033585;28;20025;-73
2021/12/17 00:52:30;;;;;;;7.47;2.22;;;25.50;99.90;;;;;;5074929;28;20020;-72
2021/12/17 00:54:57;;;;;;;11.55;2.22;;;25.30;99.90;;;;;;5073655;28;20029;-72
2021/12/17 00:57:33;;;;;;;8.18;1.92;;;25.30;99.90;;;;;;5074868;28;20058;-74
2021/12/17 01:00:02;;;;;;;8.07;1.92;;;25.30;99.90;;;;;;5075106;28;20051;-72
2021/12/17 01:02:33;;;;;;;10.18;2.50;;;25.60;99.90;;;;;;5073521;28;20025;-72
2021/12/17 01:05:04;;;;;;;7.20;2.38;;;25.60;99.90;;;;;;5074802;28;20514;-73
2021/12/17 01:07:35;;;;;;;8.05;2.10;;;25.50;99.90;;;;;;5073360;28;20027;-73
2021/12/17 01:10:06;;;;;;;11.63;2.40;;;25.40;99.90;;;;;;5074788;28;20024;-73
2021/12/17 01:12:33;;;;;;;9.90;2.30;;;25.20;99.90;;;;;;5074626;28;20081;-71
2021/12/17 01:15:01;;;;;;;10.00;2.10;;;25.00;99.90;;;;;;5073327;28;20572;-71
2021/12/17 01:17:31;;;;;;;7.35;2.50;;;25.00;99.90;;;;;;5073273;28;20021;-72
2021/12/17 01:23:58;;;;;;;6.90;2.40;;;25.10;99.90;;;;;;5074820;28;20036;-73
2021/12/17 01:36:33;;;;;;;8.48;2.10;;;25.20;99.90;;;;;;5074689;28;20023;-72
2021/12/17 01:44:07;;;;;;;9.60;2.63;;;25.40;99.90;;;;;;5074321;28;20029;-72
2021/12/17 01:46:37;;;;;;;6.38;1.92;;;25.30;99.90;;;;;;5074126;28;20469;-73
2021/12/17 01:59:52;;;;;;;7.82;1.83;;;25.90;99.90;;;;;;5073717;28;20418;-73
2021/12/17 02:02:21;;;;;;;8.57;1.80;;;26.00;99.90;;;;;;5072756;28;20054;-73
2021/12/17 02:04:48;;;;;;;9.63;2.10;;;26.30;99.90;;;;;;5074019;28;20016;-72
2021/12/17 02:07:15;;;;;;;7.53;2.05;;;26.50;99.90;;;;;;5073670;28;20028;-73
2021/12/17 02:31:40;;;;;;;6.60;1.90;;;25.70;99.90;;;;;;5073201;28;20558;-73
2021/12/17 02:36:48;;;;;;;6.35;1.75;;;26.40;99.90;;;;;;5073140;28;20480;-73
2021/12/17 02:47:14;;;;;;;7.13;1.67;;;27.70;99.90;;;;;;5073439;28;20089;-74
2021/12/17 02:49:44;;;;;;;9.00;1.77;;;27.70;99.90;;;;;;5073113;28;20025;-72
2021/12/17 02:52:14;;;;;;;6.68;1.23;;;28.00;99.90;;;;;;5071578;28;20480;-73
2021/12/17 02:54:42;;;;;;;7.03;1.80;;;27.90;99.90;;;;;;5072939;28;20020;-73
2021/12/17 02:57:12;;;;;;;5.78;1.23;;;28.10;99.90;;;;;;5071535;28;20110;-74
2021/12/17 02:59:40;;;;;;;5.72;1.17;;;28.30;99.90;;;;;;5073249;28;20020;-74
2021/12/17 03:02:09;;;;;;;5.80;1.60;;;28.20;99.90;;;;;;5072799;28;20013;-73
2021/12/17 03:04:40;;;;;;;8.57;1.67;;;27.80;99.90;;;;;;5071545;28;20032;-73
2021/12/17 03:07:12;;;;;;;7.13;1.42;;;27.30;99.90;;;;;;5074867;28;20024;-76
2021/12/17 03:12:26;;;;;;;6.28;1.52;;;27.30;99.90;;;;;;5072792;28;20025;-75
2021/12/17 03:15:03;;;;;;;7.00;1.67;;;28.00;99.90;;;;;;5072788;28;20052;-75
2021/12/17 03:25:48;;;;;;;7.15;1.50;;;28.00;99.90;;;;;;5072929;28;20116;-73
2021/12/17 03:28:17;;;;;;;4.15;1.02;;;28.20;99.90;;;;;;5072607;28;20052;-73
2021/12/17 03:30:46;;;;;;;5.23;1.40;;;28.60;99.90;;;;;;5072687;28;20052;-74
2021/12/17 03:33:14;;;;;;;8.73;1.60;;;28.90;99.90;;;;;;5072435;28;20020;-75
2021/12/17 03:35:42;;;;;;;6.22;1.50;;;28.90;99.90;;;;;;5072616;28;20017;-74
2021/12/17 03:38:09;;;;;;;4.43;1.27;;;28.50;99.90;;;;;;5072413;28;20012;-74
2021/12/17 03:40:39;;;;;;;7.45;1.58;;;28.60;99.90;;;;;;5071083;28;20027;-72
2021/12/17 03:43:12;;;;;;;5.45;1.55;;;28.50;99.90;;;;;;5072380;28;20081;-73
2021/12/17 03:45:41;;;;;;;6.15;1.77;;;28.50;99.90;;;;;;5071041;28;20111;-74
2021/12/17 03:48:09;;;;;;;7.35;1.50;;;28.40;99.90;;;;;;5070841;28;20029;-74
2021/12/17 03:50:37;;;;;;;5.75;1.55;;;28.20;99.90;;;;;;5072280;28;20033;-75
2021/12/17 03:53:06;;;;;;;7.03;1.92;;;28.00;99.90;;;;;;5073332;28;20362;-75
2021/12/17 03:55:34;;;;;;;5.93;1.63;;;27.90;99.90;;;;;;5074866;28;20485;-74
2021/12/17 03:58:01;;;;;;;6.72;1.70;;;27.90;99.90;;;;;;5074715;28;20107;-76
2021/12/17 04:00:31;;;;;;;7.25;1.40;;;28.00;99.90;;;;;;5076017;28;20488;-75
2021/12/17 04:02:58;;;;;;;5.90;1.50;;;28.20;99.90;;;;;;5075907;28;20100;-73
2021/12/17 04:05:26;;;;;;;6.43;1.50;;;28.30;99.90;;;;;;5075754;28;20041;-74
2021/12/17 04:07:53;;;;;;;5.35;1.50;;;28.60;99.90;;;;;;5075735;28;20028;-74
2021/12/17 04:10:21;;;;;;;8.77;2.10;;;28.30;99.90;;;;;;5074446;28;20024;-75
2021/12/17 04:15:34;;;;;;;6.18;1.50;;;28.20;99.90;;;;;;5075744;28;20070;-73
2021/12/17 04:18:07;;;;;;;7.25;1.92;;;28.10;99.90;;;;;;5075697;28;20020;-74
2021/12/17 04:20:35;;;;;;;4.57;1.30;;;28.10;99.90;;;;;;5074178;28;20492;-74
2021/12/17 04:23:03;;;;;;;6.35;1.60;;;28.40;99.90;;;;;;5074185;28;20074;-74
2021/12/17 04:25:30;;;;;;;6.20;1.80;;;28.00;99.90;;;;;;5074108;28;20025;-74
2021/12/17 04:27:58;;;;;;;4.13;1.40;;;28.10;99.90;;;;;;5074159;28;20481;-73
2021/12/17 04:30:26;;;;;;;3.70;1.60;;;28.30;99.90;;;;;;5075549;28;20029;-73
2021/12/17 04:32:54;;;;;;;6.05;1.60;;;28.80;99.90;;;;;;5073827;28;20056;-74
2021/12/17 04:35:22;;;;;;;5.65;1.38;;;28.70;99.90;;;;;;5074086;28;20025;-73
2021/12/17 04:37:49;;;;;;;5.45;1.30;;;28.40;99.90;;;;;;5073754;28;20434;-73
2021/12/17 04:40:19;;;;;;;4.50;1.30;;;28.50;99.90;;;;;;5073984;28;20070;-73
2021/12/17 04:43:15;;;;;;;5.93;1.40;;;28.50;99.90;;;;;;5075383;28;20118;-73
2021/12/17 04:45:51;;;;;;;3.50;1.40;;;28.50;99.90;;;;;;5073289;28;20123;-73
2021/12/17 04:59:19;;;;;;;6.80;1.50;;;27.90;99.90;;;;;;5075124;28;20028;-73
2021/12/17 05:01:46;;;;;;;8.15;1.77;;;27.70;99.90;;;;;;5074824;28;20496;-72
2021/12/17 05:04:14;;;;;;;5.50;1.45;;;28.00;99.90;;;;;;5074656;28;20090;-73
2021/12/17 05:06:41;;;;;;;5.40;1.58;;;28.00;99.90;;;;;;5074731;28;20029;-72
2021/12/17 05:09:24;;;;;;;5.20;1.70;;;27.90;99.90;;;;;;5074544;28;20107;-72
2021/12/17 05:20:27;;;;;;;4.70;1.48;;;28.40;99.90;;;;;;5075328;28;20091;-74
2021/12/17 05:22:58;;;;;;;7.05;1.30;;;28.60;99.90;;;;;;5073370;28;20024;-73
2021/12/17 05:25:29;;;;;;;5.95;1.20;;;28.10;99.90;;;;;;5074492;28;20029;-74
2021/12/17 05:28:02;;;;;;;5.75;1.30;;;28.10;99.90;;;;;;5073072;28;20040;-74
2021/12/17 05:30:33;;;;;;;5.13;1.30;;;28.20;99.90;;;;;;5072885;28;20090;-75
2021/12/17 05:33:03;;;;;;;7.63;1.52;;;28.20;99.90;;;;;;5072798;28;20024;-73
2021/12/17 05:35:31;;;;;;;6.07;1.63;;;28.30;99.90;;;;;;5074162;28;20116;-74
2021/12/17 05:37:58;;;;;;;5.30;1.48;;;28.70;99.90;;;;;;5072834;28;20105;-73
2021/12/17 05:40:26;;;;;;;3.97;1.67;;;28.60;99.90;;;;;;5074048;28;20469;-73
2021/12/17 05:42:58;;;;;;;6.65;1.50;;;28.70;99.90;;;;;;5074100;28;20431;-73
2021/12/17 05:48:12;;;;;;;7.30;2.05;;;28.40;99.90;;;;;;5073969;28;20531;-73
2021/12/17 05:50:42;;;;;;;4.85;1.30;;;28.40;99.90;;;;;;5073783;28;20098;-74
2021/12/17 05:53:10;;;;;;;4.97;1.50;;;28.20;99.90;;;;;;5073790;28;20032;-73
2021/12/17 05:55:37;;;;;;;6.15;1.33;;;28.20;99.90;;;;;;5073776;28;20103;-71
2021/12/17 05:58:06;;;;;;;7.82;1.73;;;28.50;99.90;;;;;;5073832;28;20043;-73
2021/12/17 06:00:35;;;;;;;6.13;1.60;;;27.90;99.90;;;;;;5073682;28;20039;-74
2021/12/17 06:03:03;;;;;;;6.78;1.63;;;28.00;99.90;;;;;;5072129;28;20039;-73
2021/12/17 06:05:31;;;;;;;5.97;1.60;;;28.10;99.90;;;;;;5071914;28;20028;-73
2021/12/17 06:07:59;;;;;;;6.28;1.65;;;28.30;99.90;;;;;;5073384;28;20491;-73
2021/12/17 06:10:26;;;;;;;4.97;1.60;;;28.40;99.90;;;;;;5073092;28;20024;-73
2021/12/17 06:12:54;;;;;;;7.35;1.50;;;28.60;99.90;;;;;;5073297;28;20468;-74
2021/12/17 06:15:22;;;;;;;6.38;1.35;;;29.00;99.90;;;;;;5072674;28;20469;-73
2021/12/17 06:17:51;;;;;;;7.35;1.77;;;;;;;;;;5073150;28;20388;-73
2021/12/17 06:20:22;;;;;;;3.70;1.38;;;;;;;;;;5071741;28;20048;-75
2021/12/17 06:22:50;;;;;;;5.20;1.38;;;;;;;;;;5073347;28;20069;-73
2021/12/17 06:25:17;;;;;;;7.70;1.67;;;;;;;;;;5071906;28;20032;-73
2021/12/17 06:27:45;;;;;;;6.47;1.70;;;;;;;;;;5073306;28;20406;-73
2021/12/17 06:30:13;;;;;;;6.68;1.38;;;;;;;;;;5073391;28;20020;-73
2021/12/17 06:32:40;;;;;;;7.15;1.42;;;;;;;;;;5071471;28;20480;-74
2021/12/17 06:35:08;;;;;;;6.38;1.38;;;;;;;;;;5071647;28;20021;-74
2021/12/17 06:37:36;;;;;;;4.05;1.27;;;;;;;;;;5071447;28;20028;-73
2021/12/17 06:40:05;;;;;;;4.68;1.20;;;;;;;;;;5071444;28;20021;-73
2021/12/17 06:42:32;;;;;;;5.13;1.38;;;;;;;;;;5071446;28;20031;-74
2021/12/17 06:45:04;;;;;;;7.05;1.60;;;;;;;;;;5072855;28;20470;-73
2021/12/17 06:47:34;;;;;;;6.55;1.50;;;;;;;;;;5072919;28;20023;-74
2021/12/17 07:06:01;;;;;;;6.72;1.45;;;;;;;;;;5073094;28;20040;-75
2021/12/17 07:11:33;;;;;;;6.57;1.60;;;;;;;;;;5041373;28;20040;-73
2021/12/17 07:22:18;;;;;;;6.30;1.45;;;;;;;;;;5072506;28;20481;-75
2021/12/17 07:32:04;;;;;;;8.13;2.10;;;;;;;;;;5022010;28;20061;-75
2021/12/17 07:33:33;;;;;;;7.20;1.60;;;;;;;;;;5076290;28;20485;-75
2021/12/17 07:36:08;;;;;;;5.40;1.30;;;;;;;;;;5076699;28;20024;-75
2021/12/17 07:38:42;;;;;;;7.75;1.70;;;;;;;;;;5076505;28;20021;-75
2021/12/17 07:41:09;;;;;;;4.97;1.58;;;;;;;;;;5075138;28;20054;-75
2021/12/17 07:43:40;;;;;;;6.45;1.77;;;;;;;;;;5074996;28;20492;-74
2021/12/17 07:46:12;;;;;;;7.40;1.60;;;;;;;;;;5076504;28;20070;-75
2021/12/17 07:48:40;;;;;;;3.83;1.48;;;;;;;;;;5075191;28;20020;-75
2021/12/17 07:51:08;;;;;;;7.43;1.95;;;;;;;;;;5076370;28;20099;-74
2021/12/17 07:53:35;;;;;;;7.05;2.00;;;;;;;;;;5074698;28;20029;-75
2021/12/17 07:56:04;;;;;;;7.40;1.95;;;;;;;;;;5076198;28;20070;-75
2021/12/17 07:58:31;;;;;;;6.32;1.70;;;;;;;;;;5076294;28;20016;-74
2021/12/17 08:00:59;;;;;;;9.93;1.83;;;;;;;;;;5075476;28;20155;-75
2021/12/17 08:03:26;;;;;;;5.53;1.40;;;;;;;;;;5075233;28;20029;-75
2021/12/17 08:05:54;;;;;;;8.18;1.80;;;;;;;;;;5076869;28;20021;-75
2021/12/17 08:08:21;;;;;;;5.22;1.60;;;;;;;;;;5076254;28;20035;-75
2021/12/17 08:10:49;;;;;;;6.18;1.92;;;;;;;;;;5076471;28;20105;-75
2021/12/17 08:13:21;;;;;;;11.35;2.22;;;;;;;;;;5076314;28;20025;-75
2021/12/17 08:16:07;;;;;;;5.72;1.70;;;;;;;;;;5076369;28;20017;-75
2021/12/17 08:18:50;;;;;;;8.10;1.92;;;;;;;;;;5075978;28;20017;-75
2021/12/17 08:31:31;;;;;;;5.55;1.50;;;;;;;;;;5075772;28;20481;-74
2021/12/17 08:33:59;;;;;;;5.55;1.92;;;;;;;;;;5073866;28;20021;-73
2021/12/17 08:36:28;;;;;;;9.30;2.50;;;;;;;;;;5075497;28;20095;-73
2021/12/17 08:38:55;;;;;;;6.18;1.70;;;;;;;;;;5073343;28;20040;-74
2021/12/17 08:41:22;;;;;;;7.38;2.00;;;;;;;;;;5075413;28;20039;-74
2021/12/17 08:43:49;;;;;;;6.03;1.75;;;;;;;;;;5074098;28;20074;-75
2021/12/17 08:46:17;;;;;;;6.72;1.98;;;;;;;;;;5074124;28;20055;-74
2021/12/17 08:48:44;;;;;;;5.90;1.92;;;;;;;;;;5074016;28;20025;-75
2021/12/17 08:51:11;;;;;;;8.88;2.03;;;22.60;99.90;;;;;;5075610;28;20020;-74
2021/12/17 08:53:42;;;;;;;11.80;2.05;;;22.70;99.90;;;;;;5073994;28;20039;-74
2021/12/17 08:56:13;;;;;;;5.68;2.40;;;22.60;99.90;;;;;;5075656;28;20413;-74
2021/12/17 08:58:41;;;;;;;8.75;1.60;;;22.50;99.90;;;;;;5074069;28;20028;-75
2021/12/17 09:01:08;;;;;;;11.43;2.35;;;22.50;99.90;;;;;;5075756;28;20047;-74
2021/12/17 09:03:35;;;;;;;10.05;2.40;;;22.50;99.90;;;;;;5075714;28;20044;-74
2021/12/17 09:06:04;;;;;;;8.05;1.50;;;22.40;99.90;;;;;;5073437;28;20469;-76
2021/12/17 09:08:32;;;;;;;7.65;1.63;;;22.40;99.90;;;;;;5075223;28;20154;-74
2021/12/17 09:11:00;;;;;;;10.48;2.15;;;22.30;99.90;;;;;;5074857;28;20445;-75
2021/12/17 09:13:28;;;;;;;6.78;1.98;;;22.30;99.90;;;;;;5075163;28;20052;-73
2021/12/17 09:16:06;;;;;;;10.38;2.22;;;22.30;99.90;;;;;;5073780;28;20507;-75
2021/12/17 09:18:35;;;;;;;10.40;2.30;;;22.30;99.90;;;;;;5074857;28;20338;-74
2021/12/17 09:21:02;;;;;;;9.20;1.92;;;22.20;99.90;;;;;;5074922;28;20438;-75
2021/12/17 09:23:29;;;;;;;8.38;2.10;;;22.20;99.90;;;;;;5074758;28;20021;-73
2021/12/17 09:25:57;;;;;;;8.95;1.88;;;22.10;99.90;;;;;;5074461;28;20496;-74
2021/12/17 09:28:25;;;;;;;7.53;1.92;;;22.10;99.90;;;;;;5073364;28;20025;-74
2021/12/17 09:30:53;;;;;;;9.90;2.35;;;22.10;99.90;;;;;;5074602;28;20095;-73
2021/12/17 09:33:20;;;;;;;6.78;2.17;;;22.10;99.90;;;;;;5074239;28;20074;-74
2021/12/17 09:35:49;;;;;;;11.75;2.88;;;22.00;99.90;;;;;;5074487;28;20039;-74
2021/12/17 09:38:16;;;;;;;5.70;1.67;;;22.00;99.90;;;;;;5056265;28;20439;-73
2021/12/17 09:40:44;;;;;;;5.72;1.90;;;22.00;99.90;;;;;;5074258;28;20016;-74
2021/12/17 09:43:14;;;;;;;8.20;1.95;;;22.00;99.90;;;;;;5072895;28;20021;-73
2021/12/17 09:45:41;;;;;;;;;;;22.00;99.90;;;;;;5073162;28;20031;-73
2021/12/17 09:48:08;;;;;;;8.75;2.20;;;22.00;99.90;;;;;;5072690;28;19905;-74
2021/12/17 09:50:36;;;;;;;9.55;2.53;;;21.90;99.90;;;;;;5073367;28;20041;-73
2021/12/17 09:53:03;;;;;;;7.25;2.13;;;21.90;99.90;;;;;;5072688;28;20055;-73
2021/12/17 09:55:32;;;;;;;8.27;1.85;;;21.90;99.90;;;;;;5073288;28;20115;-75
2021/12/17 09:58:00;;;;;;;5.63;2.10;;;21.90;99.90;;;;;;5072495;28;20028;-74
2021/12/17 10:00:28;;;;;;;7.93;1.90;;;22.00;99.90;;;;;;5073801;28;20017;-73
2021/12/17 10:02:55;;;;;;;9.32;2.15;;;22.00;99.90;;;;;;5073594;28;20090;-72
2021/12/17 10:05:31;;;;;;;10.85;2.25;;;21.90;99.90;;;;;;5073668;28;20016;-73
2021/12/17 10:08:05;;;;;;;7.88;1.70;;;21.90;99.90;;;;;;5072341;28;20020;-74
2021/12/17 10:10:46;;;;;;;8.90;2.03;;;21.90;99.90;;;;;;5073966;28;20024;-76
2021/12/17 10:13:15;;;;;;;9.57;2.25;;;21.80;99.90;;;;;;5071401;28;20123;-72
2021/12/17 10:15:46;;;;;;;8.48;2.03;;;21.80;99.90;;;;;;5073399;28;20473;-73
2021/12/17 10:18:14;;;;;;;10.15;2.55;;;21.80;99.90;;;;;;5073302;28;20381;-71
2021/12/17 10:20:53;;;;;;;9.45;2.38;;;21.80;99.90;;;;;;5071634;28;20048;-73
2021/12/17 10:23:23;;;;;;;8.05;1.80;;;21.80;99.90;;;;;;5073241;28;20416;-73
2021/12/17 10:25:51;;;;;;;11.25;2.67;;;21.80;99.90;;;;;;5071951;28;20028;-74
2021/12/17 10:28:19;;;;;;;5.82;1.88;;;21.70;99.90;;;;;;5073226;28;20056;-71
2021/12/17 10:30:48;;;;;;;10.15;2.03;;;21.70;99.90;;;;;;5073219;28;20028;-73
2021/12/17 10:33:24;;;;;;;5.80;1.90;;;21.70;99.90;;;;;;5073122;28;20082;-74
2021/12/17 10:35:53;;;;;;;8.57;2.10;;;21.70;99.90;;;;;;5071740;28;20036;-73
2021/12/17 10:38:24;;;;;;;11.35;2.40;;;21.70;99.90;;;;;;5073004;28;20017;-73
2021/12/17 10:43:35;;;;;;;11.07;2.40;;;21.70;99.90;;;;;;5072986;28;20094;-73
2021/12/17 10:46:21;;;;;;;8.38;2.50;;;21.70;99.90;;;;;;5073079;28;20546;-72
2021/12/17 10:48:54;;;;;;;10.20;2.60;;;21.60;99.90;;;;;;5073016;28;20016;-73
2021/12/17 10:54:23;;;;;;;11.13;2.35;;;21.60;99.90;;;;;;5072844;28;20456;-74
2021/12/17 10:56:55;;;;;;;10.68;2.80;;;21.50;99.90;;;;;;5071395;28;20024;-74
2021/12/17 10:59:34;;;;;;;10.60;2.35;;;21.50;99.90;;;;;;5071533;28;20389;-74
2021/12/17 11:02:10;;;;;;;9.40;1.98;;;21.50;99.90;;;;;;5071183;28;20025;-73
2021/12/17 11:04:43;;;;;;;10.68;2.20;;;21.50;99.90;;;;;;5071420;28;20021;-74
2021/12/17 11:07:16;;;;;;;10.48;2.20;;;21.50;99.90;;;;;;5071369;28;20029;-73
2021/12/17 11:09:54;;;;;;;11.15;3.05;;;21.40;99.90;;;;;;5071406;28;20477;-74
2021/12/17 11:12:29;;;;;;;12.77;2.53;;;21.40;99.90;;;;;;5071318;28;20115;-72
2021/12/17 11:15:24;;;;;;;9.43;2.30;;;21.40;99.90;;;;;;5072606;28;20021;-73
2021/12/17 11:17:56;;;;;;;9.98;2.53;;;21.40;99.90;;;;;;5072641;28;20021;-73
2021/12/17 11:20:37;;;;;;;10.27;2.30;;;21.30;99.90;;;;;;5071038;28;20101;-74
2021/12/17 11:23:11;;;;;;;11.00;2.58;;;21.30;99.90;;;;;;5072806;28;20025;-72
2021/12/17 11:25:40;;;;;;;12.93;2.63;;;21.30;99.90;;;;;;5072631;28;20028;-72
2021/12/17 11:28:10;;;;;;;10.10;2.55;;;21.30;99.90;;;;;;5072587;28;20020;-73
2021/12/17 11:30:41;;;;;;;8.35;2.30;;;21.30;99.90;;;;;;5071202;28;20017;-73
2021/12/17 11:33:09;;;;;;;11.65;2.95;;;21.30;99.90;;;;;;5071069;28;20029;-74
2021/12/17 11:35:42;;;;;;;10.75;2.78;;;21.30;99.90;;;;;;5072437;28;20381;-74
2021/12/17 11:38:14;;;;;;;9.30;2.17;;;21.20;99.90;;;;;;5071140;28;20016;-74
2021/12/17 11:40:47;;;;;;;6.82;1.85;;;21.20;99.90;;;;;;5071184;28;20523;-73
2021/12/17 11:43:33;;;;;;;9.65;2.40;;;21.20;99.90;;;;;;5072491;28;20029;-73
2021/12/17 11:46:06;;;;;;;10.90;3.20;;;21.20;99.90;;;;;;5072491;28;20035;-74
2021/12/17 11:48:35;;;;;;;13.15;2.88;;;21.20;99.90;;;;;;5070962;28;20131;-74
2021/12/17 11:51:12;;;;;;;9.85;2.45;;;21.20;99.90;;;;;;5072336;28;20025;-74
2021/12/17 11:54:03;;;;;;;10.95;2.92;;;21.10;99.90;;;;;;5072341;28;20067;-74
2021/12/17 11:56:40;;;;;;;7.25;2.20;;;21.10;99.90;;;;;;5072404;28;20020;-74
2021/12/17 11:59:30;;;;;;;8.25;2.20;;;21.10;99.90;;;;;;5070857;28;20027;-74
2021/12/17 12:02:22;;;;;;;11.35;2.63;;;21.10;99.90;;;;;;5062545;28;20101;-73
2021/12/17 12:04:57;;;;;;;10.95;2.72;;;21.10;99.90;;;;;;5072218;28;20027;-74
2021/12/17 12:07:24;;;;;;;10.55;2.30;;;21.10;99.90;;;;;;5072222;28;20025;-73
2021/12/17 12:09:57;;;;;;;11.80;3.22;;;21.10;99.90;;;;;;5070837;28;20504;-74
2021/12/17 12:12:41;;;;;;;15.10;3.13;;;21.00;99.90;;;;;;5072036;28;20027;-74
2021/12/17 12:15:23;;;;;;;11.48;2.50;;;21.00;99.90;;;;;;5074317;28;20028;-74
2021/12/17 12:18:03;;;;;;;8.95;2.33;;;21.00;99.90;;;;;;5075592;28;20032;-74
2021/12/17 12:20:49;;;;;;;9.07;2.30;;;21.00;99.90;;;;;;5073960;28;20036;-74
2021/12/17 12:23:29;;;;;;;10.20;2.40;;;21.00;99.90;;;;;;5074385;28;20048;-73
2021/12/17 12:26:03;;;;;;;13.65;3.00;;;21.00;99.90;;;;;;5075679;28;20396;-73
2021/12/17 12:28:45;;;;;;;11.02;2.63;;;20.90;99.90;;;;;;5075512;28;20388;-74
2021/12/17 12:31:18;;;;;;;11.38;2.70;;;21.00;99.90;;;;;;5075516;28;20099;-74
2021/12/17 12:34:09;;;;;;;8.48;2.60;;;20.90;99.90;;;;;;5075369;28;20341;-74
2021/12/17 12:36:54;;;;;;;11.18;2.95;;;20.90;99.90;;;;;;5075393;28;20017;-74
2021/12/17 12:39:43;;;;;;;9.93;2.30;;;20.90;99.90;;;;;;5075388;28;20476;-74
2021/12/17 12:42:20;;;;;;;7.07;2.20;;;20.90;99.90;;;;;;5075387;28;20427;-74
2021/12/17 12:44:50;;;;;;;7.40;2.05;;;20.90;99.90;;;;;;5073924;28;20021;-73
2021/12/17 12:47:26;;;;;;;9.68;2.25;;;20.90;99.90;;;;;;5075243;28;20013;-74
2021/12/17 12:50:02;;;;;;;8.48;2.05;;;20.80;99.90;;;;;;5073800;28;20496;-74
2021/12/17 12:52:32;;;;;;;9.43;2.13;;;20.90;99.90;;;;;;5075086;28;20554;-74
2021/12/17 12:55:27;;;;;;;9.23;2.13;;;20.80;99.90;;;;;;5075065;28;20017;-74
2021/12/17 12:58:05;;;;;;;5.65;2.15;;;20.80;99.90;;;;;;5073424;28;20032;-73
2021/12/17 13:00:38;;;;;;;9.88;2.25;;;20.70;99.90;;;;;;5073449;28;20074;-74
2021/12/17 13:03:14;;;;;;;10.18;2.88;;;20.70;99.90;;;;;;5073649;28;20070;-73
2021/12/17 13:05:44;;;;;;;8.98;2.85;;;20.70;99.90;;;;;;5074943;28;20025;-73
2021/12/17 13:08:14;;;;;;;9.77;2.40;;;20.70;99.90;;;;;;5074885;28;20489;-74
2021/12/17 13:10:44;;;;;;;8.70;2.60;;;20.70;99.90;;;;;;5073437;28;20060;-73
2021/12/17 13:16:08;;;;;;;10.02;2.90;;;20.60;99.90;;;;;;5075028;28;20025;-73
2021/12/17 13:24:13;;;;;;;7.85;2.25;;;20.50;99.90;;;;;;5074556;28;20438;-74
2021/12/17 13:26:55;;;;;;;8.13;2.03;;;20.50;99.90;;;;;;5074648;28;20044;-73
2021/12/17 13:29:33;;;;;;;7.45;2.30;;;20.50;99.90;;;;;;5074467;28;20029;-74
2021/12/17 13:32:04;;;;;;;8.90;2.60;;;20.50;99.90;;;;;;5074408;28;20115;-74
2021/12/17 13:34:52;;;;;;;8.43;2.50;;;20.50;99.90;;;;;;5074198;28;20089;-74
2021/12/17 13:37:23;;;;;;;8.80;2.40;;;20.40;99.90;;;;;;5072965;28;20545;-73
2021/12/17 13:39:56;;;;;;;6.15;2.15;;;20.40;99.90;;;;;;5074221;28;20481;-74
2021/12/17 13:42:29;;;;;;;10.45;3.25;;;20.40;99.90;;;;;;5074210;28;20500;-74
2021/12/17 13:44:58;;;;;;;10.27;2.20;;;20.40;99.90;;;;;;5072781;28;20078;-74
2021/12/17 13:47:30;;;;;;;9.63;2.97;;;20.40;99.90;;;;;;5074073;28;20033;-73
2021/12/17 13:50:20;;;;;;;9.68;2.38;;;20.40;99.90;;;;;;5072641;28;20024;-73
2021/12/17 13:53:13;;;;;;;9.25;2.25;;;20.40;99.90;;;;;;5073799;28;20074;-73
2021/12/17 13:55:47;;;;;;;11.30;2.88;;;20.30;99.90;;;;;;5072503;28;20408;-73
2021/12/17 13:58:17;;;;;;;11.52;2.67;;;20.30;99.90;;;;;;5072540;28;20492;-73
2021/12/17 14:00:50;;;;;;;5.70;1.95;;;20.30;99.90;;;;;;5072370;28;20028;-75
2021/12/17 14:03:19;;;;;;;8.18;2.40;;;20.30;99.90;;;;;;5072209;28;20032;-73
2021/12/17 14:05:57;;;;;;;8.93;2.80;;;20.30;99.90;;;;;;5073633;28;20021;-74
2021/12/17 14:08:25;;;;;;;10.88;2.35;;;20.30;99.90;;;;;;5073578;28;20384;-74
2021/12/17 14:10:54;;;;;;;10.80;2.58;;;20.30;99.90;;;;;;5072306;28;20150;-74
2021/12/17 14:13:27;;;;;;;6.93;2.22;;;20.20;99.90;;;;;;5072051;28;20028;-74
2021/12/17 14:15:57;;;;;;;8.75;2.47;;;20.20;99.90;;;;;;5072124;28;20020;-74
2021/12/17 14:18:27;;;;;;;10.60;2.55;;;20.20;99.90;;;;;;5073480;28;20481;-74
2021/12/17 14:20:57;;;;;;;8.32;2.20;;;20.10;99.90;;;;;;5071831;28;20055;-74
2021/12/17 14:23:28;;;;;;;12.50;2.67;;;;;;;;;;5071949;28;20037;-73
2021/12/17 14:26:02;;;;;;;9.57;2.28;;;;;;;;;;5071806;28;20697;-73
2021/12/17 14:28:38;;;;;;;10.88;2.40;;;;;;;;;;5071800;28;20021;-73
2021/12/17 14:31:09;;;;;;;10.70;3.15;;;;;;;;;;5071853;28;20081;-73
2021/12/17 14:33:40;;;;;;;10.02;2.60;;;;;;;;;;5071756;28;20123;-73
2021/12/17 14:36:27;;;;;;;7.88;2.50;;;19.90;99.90;;;;;;5071392;28;20023;-73
2021/12/17 14:39:06;;;;;;;13.10;2.65;;;19.90;99.90;;;;;;5071901;28;20027;-73
2021/12/17 14:41:48;;;;;;;10.05;2.67;;;19.90;99.90;;;;;;5071831;28;20078;-73
2021/12/17 14:47:06;;;;;;;8.88;2.58;;;19.80;99.90;;;;;;5073113;28;20021;-74
2021/12/17 15:00:31;;;;;;;8.65;2.92;;;19.80;99.90;;;;;;5072858;28;20477;-73
2021/12/17 15:03:23;;;;;;;9.43;2.53;;;19.70;99.90;;;;;;5072854;28;20021;-74
2021/12/17 15:05:51;;;;;;;9.95;2.92;;;19.70;99.90;;;;;;5071496;28;20032;-74
2021/12/17 15:08:19;;;;;;;8.10;3.05;;;19.70;99.90;;;;;;5071436;28;20115;-73
2021/12/17 15:10:47;;;;;;;8.15;2.90;;;19.60;99.90;;;;;;5072865;28;20047;-73
2021/12/17 15:13:16;;;;;;;9.18;2.70;;;19.60;99.90;;;;;;5071182;28;20481;-73
2021/12/17 15:15:44;;;;;;;11.27;2.38;;;19.60;99.90;;;;;;5072743;28;20017;-73
2021/12/17 15:18:19;;;;;;;9.23;2.63;;;19.50;99.90;;;;;;5072614;28;20017;-73
2021/12/17 15:20:49;;;;;;;8.00;2.58;;;19.50;99.90;;;;;;5072438;28;20040;-74
2021/12/17 15:23:17;;;;;;;7.95;2.55;;;19.50;99.90;;;;;;5071226;28;20510;-73
2021/12/17 15:25:45;;;;;;;8.60;3.08;;;19.50;99.90;;;;;;5072547;28;20028;-73
2021/12/17 15:28:15;;;;;;;10.68;2.40;;;19.50;99.90;;;;;;5071359;28;20024;-73
2021/12/17 15:30:46;;;;;;;9.15;2.40;;;19.40;99.90;;;;;;5071206;28;20032;-74
2021/12/17 15:33:15;;;;;;;8.63;2.22;;;19.40;99.90;;;;;;5071115;28;20043;-73
2021/12/17 15:35:44;;;;;;;7.22;2.05;;;19.40;99.90;;;;;;5072537;28;20017;-73
2021/12/17 15:38:12;;;;;;;11.27;2.78;;;19.30;99.90;;;;;;5071109;28;20025;-73
2021/12/17 15:40:46;;;;;;;7.50;2.10;;;19.30;99.90;;;;;;5070982;28;20028;-74
2021/12/17 15:43:15;;;;;;;10.85;3.20;;;19.30;99.90;;;;;;5072462;28;20477;-74
2021/12/17 15:45:45;;;;;;;9.82;2.78;;;19.30;99.90;;;;;;5072411;28;20027;-73
2021/12/17 15:48:14;;;;;;;11.68;2.95;;;19.30;99.90;;;;;;5073506;28;20366;-73
2021/12/17 15:50:42;;;;;;;11.65;2.83;;;19.30;99.90;;;;;;5076246;28;20025;-73
2021/12/17 15:53:10;;;;;;;8.85;2.90;;;19.30;99.90;;;;;;5076135;28;20362;-73
2021/12/17 15:55:40;;;;;;;10.63;3.00;;;19.30;99.90;;;;;;5074747;28;20031;-73
2021/12/17 15:58:11;;;;;;;8.70;2.77;;;19.30;99.90;;;;;;5076034;28;20435;-73
2021/12/17 16:00:38;;;;;;;11.60;3.20;;;19.30;99.90;;;;;;5076047;28;20033;-73
2021/12/17 16:03:08;;;;;;;9.57;2.80;;;19.30;99.90;;;;;;5075969;28;20032;-73
2021/12/17 16:05:36;;;;;;;8.05;2.40;;;19.30;99.90;;;;;;5075941;28;20028;-73
2021/12/17 16:08:05;;;;;;;8.43;2.70;;;19.30;99.90;;;;;;5074568;28;20024;-73
2021/12/17 16:18:43;;;;;;;10.95;2.97;;;19.30;99.90;;;;;;5075843;28;20035;-73
2021/12/17 16:21:11;;;;;;;10.88;2.80;;;19.20;99.90;;;;;;5075548;28;20075;-73
2021/12/17 16:23:42;;;;;;;14.07;2.95;;;19.20;99.90;;;;;;5074166;28;20021;-73
2021/12/17 16:26:12;;;;;;;10.90;3.03;;;19.20;99.90;;;;;;5075766;28;20032;-73
2021/12/17 16:28:45;;;;;;;6.28;2.75;;;19.20;99.90;;;;;;5075573;28;20025;-73
2021/12/17 16:31:19;;;;;;;10.93;2.75;;;19.20;99.90;;;;;;5075524;28;20028;-73
2021/12/17 16:33:49;;;;;;;10.40;2.63;;;19.20;99.90;;;;;;5075517;28;20021;-73
2021/12/17 16:36:18;;;;;;;10.27;2.38;;;19.20;99.90;;;;;;5074044;28;20110;-73
2021/12/17 16:38:45;;;;;;;9.55;2.55;;;19.10;99.90;;;;;;5075426;28;20108;-74
2021/12/17 16:41:13;;;;;;;8.07;2.65;;;19.10;99.90;;;;;;5074007;28;20025;-73
2021/12/17 16:43:43;;;;;;;8.38;2.78;;;19.10;99.90;;;;;;5075315;28;20057;-73
2021/12/17 16:48:44;;;;;;;6.60;2.67;;;19.10;99.90;;;;;;5075283;28;20032;-73
2021/12/17 16:51:12;;;;;;;6.90;2.40;;;;;;;;;;5075371;28;20024;-73
2021/12/17 16:53:40;;;;;;;10.25;2.85;;;;;;;;;;5073587;28;20021;-74
2021/12/17 16:56:08;;;;;;;6.13;2.33;;;18.90;99.90;;;;;;5075480;28;20025;-74
2021/12/17 16:58:35;;;;;;;10.10;2.92;;;18.90;99.90;;;;;;5074679;28;20284;-74